ilmateenistus.ee keskkonnaagentuur.ee
EETN Таллинн
FTEO31 EETN 141700
TAF EETN 141730Z 1418/1518 26010KT 9999 BKN010 BKN025 TEMPO 1418/1421
    25015G25KT 5000 SHRA BKN008 SCT015CB BKN025 BECMG 1502/1503 VRB02KT
    5000 BR BKN007 TEMPO 1503/1509 1000 BR BCFG BKN003 PROB40 1514/1518
    1500 BR BKN004=

METAR EETN 141820Z 25012KT 9999 -SHRA BKN010 FEW018CB 06/05 Q1014 R08/290195 NOSIG=
Таллинн
EEKA Кярдла
FCEO32 EETN 141300 AAA
TAF AMD EEKA 141700Z 1414/1420 CNL=

METAR EEKA 141750Z NIL=
Кярдла
EEKE Курессааре
FCEO32 EETN 141500
TAF EEKE 141500Z 1416/1422 28010KT 9999 SCT012 OVC025 PROB40 TEMPO
    1416/1420 4000 SHRA BR BKN008 SCT015CB PROB30 TEMPO 1420/1422 0800 FG
    VV002=

METAR EEKE 141750Z 27003KT 240V320 9999 FEW019 OVC024 06/05 Q1016=
Курессааре
EEPU Пярну
METAR EEPU 141750Z NIL=
Пярну
EETU Тарту
METAR EETU 141820Z AUTO 25009KT 230V290 9999 BKN020/// OVC028/// 09/08 Q1015=
Тарту
EEEI Эмари
SPECI EEEI 141826Z AUTO 23009KT 9999 BKN013 BKN022 06/05 Q1015=
Эмари